Montgomery, Vermont
Current Conditions -  °F | °C
As of 6:55 PM on Friday 24 Oct 2014 (Local Time) from KEFK Reporting Station
Overcast Overcast  
Wind Chill: 39°   Ceiling: 2900
Heat Index: 43°   Visibility: 10mi
Dew Point: 40°   Wind: 7mph
Humidity: 88%   Direction: 320°NW
Pressure: 29.82"   Gusts: NA
Location:  44.9°N, 72.64°W
Report Text: KEFK 242255Z AUTO 32006KT 10SM BKN029 BKN040 OVC046 06/04 A2982 RMK AO2 T00600042
Loading
Personal Weather Stations






























Interactive Weather Map
Tropical Storm Tracking
New forecast layout! Learn more

10-Day Weather Forecast

Advertisements
Track Severe Weather on mobile